Yates, Missouri
Current Conditions -  °F | °C
As of 6:55 PM on Wednesday 22 Oct 2014 (Local Time) from KVER Reporting Station
Haze Haze  
Wind Chill: 58°   Ceiling: Unl
Heat Index: 58°   Visibility: 3mi
Dew Point: 43°   Wind: 5mph
Humidity: 57%   Direction: 130°SE
Pressure: 30.17"   Gusts: NA
Location:  39.3081°N, 92.5236°W
Report Text: KVER 222355Z AUTO 13004KT 3SM HZ CLR 15/06 A3017 RMK AO2 T01450060 10241 20038
Loading
Personal Weather Stations






























Interactive Weather Map
Tropical Storm Tracking
New forecast layout! Learn more

10-Day Weather Forecast

Advertisements
Track Severe Weather on mobile